Time;durP1;ratioP1;P1;durP2;ratioP2;P2;SDS_P1;SDS_P2;PMS_P1;PMS_P2;Temp;Humidity;BMP_temperature;BMP_pressure;BME280_temperature;BME280_humidity;BME280_pressure;Samples;Min_cycle;Max_cycle;Signal;HPM_P1;HPM_P2
2021/08/09 00:00:35;;;;;;;7.78;3.88;;;15.10;99.90;;;;;;5099383;28;20040;-70
2021/08/09 00:03:01;;;;;;;9.32;3.97;;;15.00;99.90;;;;;;5099823;28;20036;-70
2021/08/09 00:09:51;;;;;;;11.15;3.92;;;15.00;99.90;;;;;;5099361;28;20097;-70
2021/08/09 00:12:16;;;;;;;14.50;4.53;;;15.10;99.90;;;;;;5100115;28;20078;-70
2021/08/09 00:14:42;;;;;;;14.95;4.97;;;15.00;99.90;;;;;;5099992;28;20526;-70
2021/08/09 00:17:08;;;;;;;15.45;4.88;;;15.00;99.90;;;;;;5099911;28;20380;-70
2021/08/09 00:19:34;;;;;;;10.73;4.18;;;15.10;99.90;;;;;;5099485;28;20134;-70
2021/08/09 00:22:00;;;;;;;13.88;4.85;;;15.10;99.90;;;;;;5099907;28;20047;-70
2021/08/09 00:24:28;;;;;;;11.77;4.30;;;15.10;99.90;;;;;;5099583;28;20036;-70
2021/08/09 00:26:54;;;;;;;10.57;4.82;;;15.10;99.90;;;;;;5100112;28;20093;-70
2021/08/09 00:29:19;;;;;;;12.27;4.55;;;15.10;99.90;;;;;;5099568;28;20044;-70
2021/08/09 00:31:45;;;;;;;13.82;4.80;;;15.10;99.90;;;;;;5099598;28;20035;-70
2021/08/09 00:34:10;;;;;;;19.17;4.60;;;15.10;99.90;;;;;;5098335;28;20071;-70
2021/08/09 00:36:37;;;;;;;10.05;4.60;;;15.10;99.90;;;;;;5099479;28;20459;-70
2021/08/09 00:39:02;;;;;;;10.65;4.63;;;15.10;99.90;;;;;;5099141;28;20118;-70
2021/08/09 00:41:28;;;;;;;12.15;4.65;;;15.00;99.90;;;;;;5095939;28;20055;-70
2021/08/09 00:43:54;;;;;;;11.13;4.50;;;15.00;99.90;;;;;;5096219;28;20035;-70
2021/08/09 00:46:20;;;;;;;11.88;4.60;;;15.00;99.90;;;;;;5096805;28;20057;-70
2021/08/09 00:48:45;;;;;;;10.57;4.60;;;15.10;99.90;;;;;;5096051;28;20101;-70
2021/08/09 00:51:11;;;;;;;9.93;4.32;;;15.00;99.90;;;;;;5096329;28;20032;-70
2021/08/09 00:53:38;;;;;;;16.02;4.85;;;15.10;99.90;;;;;;5096552;28;20465;-70
2021/08/09 00:56:04;;;;;;;14.07;4.35;;;15.00;99.90;;;;;;5096002;28;20036;-70
2021/08/09 00:58:31;;;;;;;14.00;4.85;;;15.00;99.90;;;;;;5096277;28;20089;-70
2021/08/09 01:00:57;;;;;;;12.77;4.50;;;15.00;99.90;;;;;;5096204;28;20052;-70
2021/08/09 01:03:22;;;;;;;17.75;4.68;;;14.90;99.90;;;;;;5096054;28;20182;-70
2021/08/09 01:05:50;;;;;;;15.38;4.03;;;14.90;99.90;;;;;;5095930;28;20085;-70
2021/08/09 01:08:51;;;;;;;12.27;4.25;;;14.90;99.90;;;;;;5095776;28;20079;-70
2021/08/09 01:11:30;;;;;;;9.98;4.07;;;14.90;99.90;;;;;;5095884;28;20032;-70
2021/08/09 01:14:17;;;;;;;18.20;5.05;;;14.80;99.90;;;;;;5095510;28;20036;-70
2021/08/09 01:16:44;;;;;;;12.18;4.10;;;14.80;99.90;;;;;;5095852;28;20090;-70
2021/08/09 01:19:22;;;;;;;10.52;4.90;;;14.70;99.90;;;;;;5095268;28;20039;-70
2021/08/09 01:21:48;;;;;;;11.07;4.80;;;14.70;99.90;;;;;;5095461;28;20036;-70
2021/08/09 01:24:40;;;;;;;11.35;4.78;;;14.70;99.90;;;;;;5095629;28;20039;-70
2021/08/09 01:27:29;;;;;;;13.30;6.07;;;14.70;99.90;;;;;;5095255;28;20068;-70
2021/08/09 01:29:59;;;;;;;15.90;5.45;;;14.60;99.90;;;;;;5095373;28;20036;-70
2021/08/09 01:32:26;;;;;;;15.38;5.40;;;14.60;99.90;;;;;;5095433;28;20067;-70
2021/08/09 01:34:53;;;;;;;13.23;4.75;;;14.60;99.90;;;;;;5095557;28;20039;-70
2021/08/09 01:37:21;;;;;;;15.30;5.38;;;14.60;99.90;;;;;;5095183;28;20063;-70
2021/08/09 01:39:49;;;;;;;13.07;5.45;;;14.60;99.90;;;;;;5094927;28;20488;-70
2021/08/09 01:42:16;;;;;;;14.18;5.35;;;14.50;99.90;;;;;;5095231;28;20036;-70
2021/08/09 01:44:41;;;;;;;13.45;5.50;;;14.50;99.90;;;;;;5095126;28;20089;-70
2021/08/09 01:47:08;;;;;;;13.02;6.05;;;14.50;99.90;;;;;;5094970;28;20036;-70
2021/08/09 01:49:34;;;;;;;14.20;5.75;;;14.50;99.90;;;;;;5094807;28;20492;-70
2021/08/09 01:52:03;;;;;;;13.40;6.03;;;14.60;99.90;;;;;;5095072;28;20039;-70
2021/08/09 01:54:30;;;;;;;12.75;5.75;;;14.60;99.90;;;;;;5093778;28;20036;-70
2021/08/09 01:56:56;;;;;;;14.43;5.85;;;14.60;99.90;;;;;;5094768;28;20036;-70
2021/08/09 01:59:23;;;;;;;14.25;6.20;;;14.70;99.90;;;;;;5094654;28;20491;-70
2021/08/09 02:01:49;;;;;;;14.18;6.22;;;14.70;99.90;;;;;;5094680;28;20044;-70
2021/08/09 02:04:15;;;;;;;11.63;5.57;;;14.70;99.90;;;;;;5094662;28;20040;-70
2021/08/09 02:06:42;;;;;;;12.73;5.55;;;14.70;99.90;;;;;;5094541;28;20054;-70
2021/08/09 02:09:08;;;;;;;12.18;5.45;;;14.70;99.90;;;;;;5094671;28;20048;-70
2021/08/09 02:11:44;;;;;;;16.48;6.25;;;14.70;99.90;;;;;;5094540;28;20040;-70
2021/08/09 02:14:12;;;;;;;12.15;4.85;;;14.80;99.90;;;;;;5094592;28;20458;-70
2021/08/09 02:16:40;;;;;;;19.98;5.63;;;14.70;99.90;;;;;;5094727;28;20063;-70
2021/08/09 02:19:48;;;;;;;12.13;5.15;;;14.70;99.90;;;;;;5094413;28;20036;-70
2021/08/09 02:22:21;;;;;;;15.60;4.88;;;14.70;99.90;;;;;;5094399;28;20471;-70
2021/08/09 02:24:58;;;;;;;9.80;4.53;;;14.70;99.90;;;;;;5094592;28;20068;-70
2021/08/09 02:27:33;;;;;;;14.35;5.22;;;14.70;99.90;;;;;;5094533;28;20133;-70
2021/08/09 02:30:00;;;;;;;15.80;4.80;;;14.80;99.90;;;;;;5094067;28;20488;-70
2021/08/09 02:32:29;;;;;;;8.75;4.60;;;14.70;99.90;;;;;;5094044;28;20464;-70
2021/08/09 02:34:57;;;;;;;11.82;4.30;;;14.80;99.90;;;;;;5094093;28;20043;-70
2021/08/09 02:37:25;;;;;;;18.05;5.45;;;14.80;99.90;;;;;;5094398;28;20043;-70
2021/08/09 02:39:52;;;;;;;14.02;5.55;;;14.80;99.90;;;;;;5093977;28;20122;-70
2021/08/09 02:42:18;;;;;;;11.35;5.07;;;14.80;99.90;;;;;;5094348;28;20094;-70
2021/08/09 02:44:43;;;;;;;9.85;4.40;;;14.80;99.90;;;;;;5094024;28;20499;-70
2021/08/09 02:47:12;;;;;;;10.15;4.45;;;14.80;99.90;;;;;;5093794;28;20152;-70
2021/08/09 02:49:46;;;;;;;11.57;4.35;;;14.80;99.90;;;;;;5093575;28;20044;-70
2021/08/09 02:52:12;;;;;;;15.63;4.93;;;14.70;99.90;;;;;;5093808;28;20040;-70
2021/08/09 02:54:38;;;;;;;16.73;4.72;;;14.70;99.90;;;;;;5094297;28;20036;-70
2021/08/09 02:57:05;;;;;;;10.27;4.47;;;14.80;99.90;;;;;;5093710;28;20048;-70
2021/08/09 02:59:31;;;;;;;16.65;4.97;;;14.70;99.90;;;;;;5093497;28;20131;-70
2021/08/09 03:01:58;;;;;;;14.75;4.60;;;14.70;99.90;;;;;;5093621;28;20028;-70
2021/08/09 03:04:26;;;;;;;17.00;5.30;;;14.70;99.90;;;;;;5093007;28;20588;-70
2021/08/09 03:06:54;;;;;;;11.52;4.65;;;14.60;99.90;;;;;;5093599;28;20040;-70
2021/08/09 03:09:21;;;;;;;15.85;4.75;;;14.60;99.90;;;;;;5092128;28;20032;-70
2021/08/09 03:11:46;;;;;;;17.27;5.53;;;14.60;99.90;;;;;;5093626;28;20036;-70
2021/08/09 03:14:26;;;;;;;15.45;5.32;;;14.60;99.90;;;;;;5093548;28;20036;-70
2021/08/09 03:16:52;;;;;;;13.07;4.80;;;14.60;99.90;;;;;;5093592;28;20043;-70
2021/08/09 03:19:18;;;;;;;18.25;5.72;;;14.50;99.90;;;;;;5093136;28;20039;-70
2021/08/09 03:21:59;;;;;;;14.15;5.57;;;14.50;99.90;;;;;;5093407;28;20040;-70
2021/08/09 03:24:26;;;;;;;13.60;4.43;;;14.50;99.90;;;;;;5093666;28;20036;-70
2021/08/09 03:26:52;;;;;;;13.48;5.30;;;14.40;99.90;;;;;;5093360;28;20051;-70
2021/08/09 03:29:18;;;;;;;21.95;5.22;;;14.40;99.90;;;;;;5093122;28;20040;-70
2021/08/09 03:31:44;;;;;;;14.98;5.45;;;14.40;99.90;;;;;;5093263;28;20050;-69
2021/08/09 03:34:10;;;;;;;13.73;5.20;;;14.40;99.90;;;;;;5093402;28;20050;-69
2021/08/09 03:36:41;;;;;;;20.13;6.43;;;14.40;99.90;;;;;;5093625;28;20040;-69
2021/08/09 03:39:08;;;;;;;15.13;4.97;;;14.40;99.90;;;;;;5092991;28;20115;-70
2021/08/09 03:41:35;;;;;;;15.77;5.82;;;14.40;99.90;;;;;;5093182;28;20052;-70
2021/08/09 03:44:01;;;;;;;16.67;5.45;;;14.40;99.90;;;;;;5093480;28;20036;-70
2021/08/09 03:46:26;;;;;;;11.88;5.28;;;14.40;99.90;;;;;;5093657;28;20436;-70
2021/08/09 03:48:52;;;;;;;15.98;5.63;;;14.40;99.90;;;;;;5093118;28;20126;-70
2021/08/09 03:51:18;;;;;;;16.77;6.22;;;14.50;99.90;;;;;;5093222;28;20097;-70
2021/08/09 03:53:46;;;;;;;17.00;6.10;;;14.40;99.90;;;;;;5093246;28;20134;-70
2021/08/09 03:56:11;;;;;;;16.42;6.18;;;14.50;99.90;;;;;;5093277;28;20107;-70
2021/08/09 03:58:37;;;;;;;17.05;5.25;;;14.50;99.90;;;;;;5091751;28;20044;-70
2021/08/09 04:01:04;;;;;;;16.58;5.75;;;14.50;99.90;;;;;;5093128;28;20043;-70
2021/08/09 04:03:30;;;;;;;10.90;5.20;;;14.50;99.90;;;;;;5093495;28;20032;-70
2021/08/09 04:05:56;;;;;;;14.88;5.65;;;14.50;99.90;;;;;;5092970;28;20036;-70
2021/08/09 04:08:22;;;;;;;18.38;5.80;;;14.50;99.90;;;;;;5093140;28;20384;-70
2021/08/09 04:10:47;;;;;;;14.10;5.55;;;14.50;99.90;;;;;;5092964;28;20051;-70
2021/08/09 04:13:13;;;;;;;15.95;5.43;;;14.50;99.90;;;;;;5092830;28;20040;-70
2021/08/09 04:15:39;;;;;;;12.82;4.45;;;14.50;99.90;;;;;;5093479;28;20046;-70
2021/08/09 04:18:05;;;;;;;20.90;6.03;;;14.50;99.90;;;;;;5096997;28;20042;-70
2021/08/09 04:20:31;;;;;;;15.52;5.47;;;14.50;99.90;;;;;;5096444;28;20483;-70
2021/08/09 04:22:57;;;;;;;15.32;5.80;;;14.50;99.90;;;;;;5096638;28;20055;-70
2021/08/09 04:25:24;;;;;;;14.93;5.32;;;14.50;99.90;;;;;;5096721;28;20107;-70
2021/08/09 04:27:50;;;;;;;13.35;5.03;;;14.50;99.90;;;;;;5096497;28;20478;-70
2021/08/09 04:30:16;;;;;;;15.75;5.50;;;14.60;99.90;;;;;;5096338;28;20032;-70
2021/08/09 04:32:42;;;;;;;18.08;5.95;;;14.50;99.90;;;;;;5096431;28;20040;-70
2021/08/09 04:35:10;;;;;;;19.17;6.72;;;14.60;99.90;;;;;;5096540;28;20040;-70
2021/08/09 04:37:37;;;;;;;16.50;5.47;;;14.50;99.90;;;;;;5096341;28;20039;-70
2021/08/09 04:40:04;;;;;;;18.38;5.07;;;14.60;99.90;;;;;;5096141;28;20054;-70
2021/08/09 04:42:30;;;;;;;14.02;4.53;;;14.60;99.90;;;;;;5096458;28;20454;-70
2021/08/09 04:44:56;;;;;;;12.85;5.20;;;14.60;99.90;;;;;;5096520;28;20042;-69
2021/08/09 04:47:21;;;;;;;14.93;5.45;;;14.60;99.90;;;;;;5095396;28;20098;-70
2021/08/09 04:49:47;;;;;;;14.93;5.20;;;14.60;99.90;;;;;;5095800;28;20044;-70
2021/08/09 04:52:13;;;;;;;18.65;5.25;;;14.60;99.90;;;;;;5096162;28;20123;-70
2021/08/09 04:54:39;;;;;;;15.57;5.35;;;14.60;99.90;;;;;;5096076;28;20067;-70
2021/08/09 04:57:04;;;;;;;15.27;4.78;;;14.60;99.90;;;;;;5096359;28;20040;-70
2021/08/09 04:59:30;;;;;;;14.68;5.50;;;14.60;99.90;;;;;;5095685;28;20036;-70
2021/08/09 05:01:56;;;;;;;17.40;5.50;;;14.60;99.90;;;;;;5096176;28;20036;-70
2021/08/09 05:04:21;;;;;;;14.15;5.22;;;14.50;99.90;;;;;;5096074;28;20036;-70
2021/08/09 05:06:49;;;;;;;19.35;5.50;;;14.60;99.90;;;;;;5095816;28;20043;-70
2021/08/09 05:09:15;;;;;;;13.23;5.13;;;14.50;99.90;;;;;;5095544;28;20460;-70
2021/08/09 05:11:41;;;;;;;17.95;5.40;;;14.50;99.90;;;;;;5095858;28;20392;-70
2021/08/09 05:14:10;;;;;;;19.58;5.80;;;14.60;99.90;;;;;;5095753;28;20053;-70
2021/08/09 05:16:39;;;;;;;14.30;5.20;;;14.60;99.90;;;;;;5095578;28;20549;-70
2021/08/09 05:19:05;;;;;;;12.13;5.07;;;14.60;99.90;;;;;;5094105;28;20062;-70
2021/08/09 05:21:34;;;;;;;20.05;4.88;;;14.60;99.90;;;;;;5095712;28;20040;-70
2021/08/09 05:24:01;;;;;;;12.52;5.25;;;14.60;99.90;;;;;;5096104;28;20086;-70
2021/08/09 05:26:28;;;;;;;15.95;5.18;;;14.60;99.90;;;;;;5095448;28;20039;-70
2021/08/09 05:28:53;;;;;;;10.88;4.82;;;14.70;99.90;;;;;;5094166;28;20044;-70
2021/08/09 05:31:21;;;;;;;19.05;5.95;;;14.70;99.90;;;;;;5095355;28;20036;-70
2021/08/09 05:33:48;;;;;;;18.10;5.15;;;14.70;99.90;;;;;;5095290;28;20082;-70
2021/08/09 05:36:13;;;;;;;19.88;6.50;;;14.70;99.90;;;;;;5095392;28;20079;-70
2021/08/09 05:38:39;;;;;;;15.77;5.60;;;14.70;99.90;;;;;;5094990;28;20071;-70
2021/08/09 05:41:06;;;;;;;16.08;5.10;;;14.80;99.90;;;;;;5095081;28;20491;-70
2021/08/09 05:43:32;;;;;;;17.42;4.97;;;14.80;99.90;;;;;;5095391;28;20036;-70
2021/08/09 05:45:58;;;;;;;18.45;5.32;;;14.80;99.90;;;;;;5095099;28;20044;-70
2021/08/09 05:48:23;;;;;;;9.48;5.00;;;14.80;99.90;;;;;;5094797;28;20043;-70
2021/08/09 05:50:49;;;;;;;15.70;4.90;;;14.80;99.90;;;;;;5095068;28;20454;-70
2021/08/09 05:53:15;;;;;;;15.88;5.63;;;14.90;99.90;;;;;;5094955;28;20036;-70
2021/08/09 05:55:41;;;;;;;17.40;5.95;;;14.90;99.90;;;;;;5094928;28;20036;-70
2021/08/09 05:58:06;;;;;;;15.20;5.72;;;14.90;99.90;;;;;;5095140;28;20546;-70
2021/08/09 06:00:32;;;;;;;18.30;5.68;;;14.90;99.90;;;;;;5094500;28;20028;-70
2021/08/09 06:02:58;;;;;;;11.52;5.53;;;14.90;99.90;;;;;;5095015;28;20047;-70
2021/08/09 06:05:25;;;;;;;17.48;4.85;;;14.90;99.90;;;;;;5094854;28;20036;-70
2021/08/09 06:07:50;;;;;;;16.83;6.50;;;14.90;99.90;;;;;;5094901;28;20094;-70
2021/08/09 06:10:16;;;;;;;17.45;5.13;;;15.00;99.90;;;;;;5094205;28;20040;-70
2021/08/09 06:12:42;;;;;;;18.75;5.55;;;15.00;99.90;;;;;;5094488;28;20042;-70
2021/08/09 06:15:08;;;;;;;13.43;5.20;;;15.00;99.90;;;;;;5094722;28;20107;-70
2021/08/09 06:17:35;;;;;;;19.90;5.40;;;15.00;99.90;;;;;;5094776;28;20054;-70
2021/08/09 06:20:02;;;;;;;13.43;6.88;;;15.10;99.90;;;;;;5094084;28;20036;-70
2021/08/09 06:22:28;;;;;;;13.65;5.82;;;15.10;99.90;;;;;;5094436;28;20100;-70
2021/08/09 06:24:54;;;;;;;15.98;4.78;;;15.10;99.90;;;;;;5093385;28;20043;-70
2021/08/09 06:27:20;;;;;;;10.88;4.68;;;15.20;99.90;;;;;;5094373;28;20044;-70
2021/08/09 06:29:45;;;;;;;19.13;5.70;;;15.20;99.90;;;;;;5094175;28;20075;-70
2021/08/09 06:32:11;;;;;;;13.13;5.55;;;15.20;99.90;;;;;;5094197;28;20040;-70
2021/08/09 06:34:37;;;;;;;12.52;4.82;;;15.20;99.90;;;;;;5094646;28;20038;-70
2021/08/09 06:37:03;;;;;;;17.77;5.85;;;15.30;99.90;;;;;;5094143;28;20450;-70
2021/08/09 06:39:29;;;;;;;16.63;5.25;;;15.30;99.90;;;;;;5093290;28;20044;-70
2021/08/09 06:42:02;;;;;;;18.63;5.07;;;15.30;99.90;;;;;;5094417;28;20044;-70
2021/08/09 06:44:28;;;;;;;21.05;5.63;;;15.40;99.90;;;;;;5094106;28;20403;-70
2021/08/09 06:46:54;;;;;;;13.27;5.38;;;15.50;99.90;;;;;;5094017;28;20452;-70
2021/08/09 06:49:19;;;;;;;16.55;5.75;;;15.70;99.90;;;;;;5094024;28;20064;-70
2021/08/09 06:51:45;;;;;;;12.90;5.88;;;15.80;99.90;;;;;;5094030;28;20062;-70
2021/08/09 06:54:11;;;;;;;12.63;5.05;;;16.00;99.90;;;;;;5093912;28;20127;-70
2021/08/09 06:56:36;;;;;;;16.77;5.00;;;16.10;99.90;;;;;;5093742;28;20036;-70
2021/08/09 06:59:02;;;;;;;13.20;5.68;;;16.20;99.90;;;;;;5093439;28;20036;-70
2021/08/09 07:01:28;;;;;;;14.00;5.60;;;16.50;99.90;;;;;;5093799;28;20123;-70
2021/08/09 07:03:54;;;;;;;13.85;4.65;;;16.70;99.90;;;;;;5093771;28;20078;-70
2021/08/09 07:06:21;;;;;;;15.27;4.65;;;17.00;99.90;;;;;;5094013;28;20036;-70
2021/08/09 07:08:51;;;;;;;15.45;5.20;;;17.20;99.90;;;;;;5093227;28;20411;-70
2021/08/09 07:11:18;;;;;;;13.93;4.90;;;17.20;99.90;;;;;;5093598;28;20514;-68
2021/08/09 07:13:44;;;;;;;14.10;4.82;;;17.10;99.90;;;;;;5093786;28;20036;-69
2021/08/09 07:16:09;;;;;;;19.42;6.07;;;17.20;99.90;;;;;;5093649;28;20040;-69
2021/08/09 07:18:35;;;;;;;16.45;4.80;;;17.30;99.90;;;;;;5093467;28;20089;-69
2021/08/09 07:21:01;;;;;;;17.42;4.57;;;17.60;99.90;;;;;;5093546;28;20032;-69
2021/08/09 07:23:27;;;;;;;17.50;5.72;;;17.90;99.90;;;;;;5093396;28;20057;-69
2021/08/09 07:25:53;;;;;;;16.02;4.70;;;17.90;99.90;;;;;;5093792;28;20249;-69
2021/08/09 07:28:19;;;;;;;17.92;5.60;;;18.10;99.90;;;;;;5093317;28;20507;-69
2021/08/09 07:30:44;;;;;;;20.15;5.53;;;18.10;99.90;;;;;;5093010;28;20510;-69
2021/08/09 07:33:10;;;;;;;11.95;4.15;;;18.00;99.90;;;;;;5094107;28;20115;-69
2021/08/09 07:35:37;;;;;;;21.65;5.82;;;17.90;99.90;;;;;;5093327;28;20120;-69
2021/08/09 07:38:03;;;;;;;17.27;4.85;;;17.80;99.90;;;;;;5093387;28;20050;-69
2021/08/09 07:40:28;;;;;;;11.73;4.65;;;17.60;99.90;;;;;;5093121;28;20032;-69
2021/08/09 07:42:54;;;;;;;11.38;4.55;;;17.50;99.90;;;;;;5093182;28;20097;-69
2021/08/09 07:45:21;;;;;;;15.75;5.05;;;17.50;99.90;;;;;;5093367;28;20039;-69
2021/08/09 07:47:52;;;;;;;16.85;5.40;;;17.40;99.90;;;;;;5093296;28;20032;-69
2021/08/09 07:50:20;;;;;;;14.73;5.63;;;17.30;99.90;;;;;;5094403;28;20036;-69
2021/08/09 07:52:46;;;;;;;15.85;4.90;;;17.30;99.90;;;;;;5097627;28;20048;-69
2021/08/09 07:55:12;;;;;;;22.20;6.13;;;17.20;99.90;;;;;;5097080;28;20048;-69
2021/08/09 07:57:38;;;;;;;15.65;4.60;;;17.30;99.90;;;;;;5097090;28;20096;-69
2021/08/09 08:00:08;;;;;;;16.20;5.22;;;17.30;99.90;;;;;;5096990;28;20062;-69
2021/08/09 08:02:35;;;;;;;16.45;5.20;;;17.30;99.90;;;;;;5097311;28;20047;-69
2021/08/09 08:05:01;;;;;;;16.58;4.63;;;17.40;99.90;;;;;;5097608;28;20392;-69
2021/08/09 08:07:26;;;;;;;13.93;4.25;;;17.50;99.90;;;;;;5097511;28;20037;-69
2021/08/09 08:09:52;;;;;;;14.20;5.05;;;17.50;99.90;;;;;;5096549;28;20043;-70
2021/08/09 08:12:18;;;;;;;13.70;4.68;;;17.70;99.90;;;;;;5097065;28;20059;-70
2021/08/09 08:14:43;;;;;;;20.58;5.22;;;17.80;99.90;;;;;;5096964;28;20044;-70
2021/08/09 08:17:09;;;;;;;21.00;5.35;;;17.70;99.90;;;;;;5097159;28;20073;-70
2021/08/09 08:19:35;;;;;;;17.75;5.22;;;17.70;99.90;;;;;;5096475;28;20044;-70
2021/08/09 08:22:01;;;;;;;13.05;4.60;;;17.70;99.90;;;;;;5096844;28;20098;-70
2021/08/09 08:24:30;;;;;;;12.52;4.53;;;17.60;99.90;;;;;;5096636;28;20074;-70
2021/08/09 08:26:55;;;;;;;14.05;5.35;;;17.60;99.90;;;;;;5096653;28;20040;-69
2021/08/09 08:29:21;;;;;;;16.45;5.03;;;17.50;99.90;;;;;;5096672;28;20040;-70
2021/08/09 08:31:47;;;;;;;15.63;5.95;;;17.60;99.90;;;;;;5096759;28;20036;-70
2021/08/09 08:34:13;;;;;;;19.48;4.93;;;17.50;99.90;;;;;;5096458;28;20039;-70
2021/08/09 08:36:38;;;;;;;14.93;5.22;;;17.40;99.90;;;;;;5096713;28;20036;-70
2021/08/09 08:39:06;;;;;;;16.83;5.28;;;17.40;99.90;;;;;;5096058;28;20123;-70
2021/08/09 08:41:32;;;;;;;17.80;5.80;;;17.40;99.90;;;;;;5096106;28;20060;-70
2021/08/09 08:43:58;;;;;;;18.33;5.40;;;17.50;99.90;;;;;;5096738;28;20055;-70
2021/08/09 08:46:25;;;;;;;12.93;4.65;;;17.50;99.90;;;;;;5096180;28;20056;-70
2021/08/09 08:48:53;;;;;;;13.85;4.57;;;17.60;99.90;;;;;;5095815;28;20047;-70
2021/08/09 08:51:23;;;;;;;12.77;4.72;;;17.80;99.90;;;;;;5096079;28;20047;-70
2021/08/09 08:53:49;;;;;;;12.38;4.68;;;18.00;99.90;;;;;;5096092;28;20040;-70
2021/08/09 08:56:14;;;;;;;15.13;5.03;;;18.20;99.90;;;;;;5096218;28;20468;-70
2021/08/09 08:58:40;;;;;;;15.52;4.72;;;18.40;99.90;;;;;;5095698;28;20036;-69
2021/08/09 09:01:06;;;;;;;16.95;4.07;;;18.40;99.90;;;;;;5095493;28;20028;-70
2021/08/09 09:03:38;;;;;;;20.27;4.80;;;18.50;99.90;;;;;;5095471;28;20523;-70
2021/08/09 09:06:09;;;;;;;14.55;4.53;;;18.60;99.90;;;;;;5095958;28;20051;-70
2021/08/09 09:08:46;;;;;;;15.70;4.20;;;18.90;99.90;;;;;;5095541;28;20044;-70
2021/08/09 09:11:14;;;;;;;13.25;4.38;;;19.10;99.90;;;;;;5096090;28;20525;-70
2021/08/09 09:13:55;;;;;;;9.35;3.85;;;19.30;99.90;;;;;;5095661;28;20063;-70
2021/08/09 09:16:21;;;;;;;11.93;4.05;;;19.50;99.90;;;;;;5095924;28;20036;-70
2021/08/09 09:18:57;;;;;;;10.52;3.72;;;19.60;99.90;;;;;;5095738;28;20064;-70
2021/08/09 09:21:37;;;;;;;17.10;4.30;;;19.60;99.90;;;;;;5095679;28;20036;-70
2021/08/09 09:24:11;;;;;;;14.57;4.25;;;19.60;99.90;;;;;;5095901;28;20064;-70
2021/08/09 09:26:40;;;;;;;9.50;3.30;;;19.80;99.90;;;;;;5095416;28;20036;-70
2021/08/09 09:29:11;;;;;;;17.55;3.95;;;19.80;99.90;;;;;;5095002;28;20059;-70
2021/08/09 09:31:39;;;;;;;10.95;3.20;;;19.90;99.90;;;;;;5095474;28;20066;-69
2021/08/09 09:34:11;;;;;;;14.52;4.25;;;20.00;99.90;;;;;;5095558;28;20464;-70
2021/08/09 09:36:57;;;;;;;13.85;3.97;;;20.30;99.90;;;;;;5095394;28;20404;-69
2021/08/09 09:39:30;;;;;;;10.25;3.13;;;20.60;99.90;;;;;;5093737;28;20036;-69
2021/08/09 09:41:56;;;;;;;;;;;20.60;99.90;;;;;;5095556;28;20111;-69
2021/08/09 09:44:24;;;;;;;11.38;3.83;;;20.40;99.90;;;;;;5095544;28;19920;-69
2021/08/09 09:46:50;;;;;;;11.82;3.05;;;20.20;99.90;;;;;;5095184;28;20071;-69
2021/08/09 09:49:32;;;;;;;11.07;3.95;;;20.30;99.90;;;;;;5094822;28;20072;-69
2021/08/09 09:51:59;;;;;;;8.65;3.03;;;20.30;99.90;;;;;;5094979;28;20388;-69
2021/08/09 09:54:26;;;;;;;10.30;3.28;;;20.40;99.90;;;;;;5094947;28;20071;-70
2021/08/09 09:56:56;;;;;;;7.63;3.25;;;20.30;99.90;;;;;;5095381;28;20060;-70
2021/08/09 09:59:26;;;;;;;10.43;3.55;;;20.40;99.90;;;;;;5094568;28;20036;-69
2021/08/09 10:01:52;;;;;;;10.05;2.45;;;20.40;99.90;;;;;;5094763;28;20535;-69
2021/08/09 10:04:18;;;;;;;8.82;2.58;;;20.40;99.90;;;;;;5094801;28;20111;-69
2021/08/09 10:06:46;;;;;;;7.75;2.30;;;20.60;99.90;;;;;;5094772;28;20380;-69
2021/08/09 10:09:13;;;;;;;7.75;2.35;;;20.70;99.90;;;;;;5094262;28;20032;-69
2021/08/09 10:11:43;;;;;;;9.23;3.08;;;20.70;99.90;;;;;;5094761;28;20491;-70
2021/08/09 10:14:10;;;;;;;5.80;2.80;;;20.70;99.90;;;;;;5094409;28;20040;-69
2021/08/09 10:16:38;;;;;;;7.88;2.63;;;20.70;99.90;;;;;;5094470;28;20443;-70
2021/08/09 10:19:05;;;;;;;6.38;2.22;;;20.70;99.90;;;;;;5094322;28;20040;-70
2021/08/09 10:21:32;;;;;;;5.88;2.30;;;20.80;99.90;;;;;;5094411;28;20043;-70
2021/08/09 10:23:59;;;;;;;6.18;1.90;;;21.00;99.90;;;;;;5094778;28;20036;-71
2021/08/09 10:26:29;;;;;;;6.82;2.08;;;21.00;99.90;;;;;;5094683;28;20043;-70
2021/08/09 10:29:00;;;;;;;7.32;2.30;;;20.90;99.90;;;;;;5094521;28;20086;-70
2021/08/09 10:31:38;;;;;;;4.72;1.70;;;20.90;99.90;;;;;;5095077;28;20515;-70
2021/08/09 10:34:07;;;;;;;5.25;1.98;;;20.90;99.90;;;;;;5094129;28;20058;-70
2021/08/09 10:37:04;;;;;;;5.03;1.67;;;20.90;99.90;;;;;;5094438;28;20036;-70
2021/08/09 10:39:49;;;;;;;8.52;1.70;;;21.00;99.90;;;;;;5094073;28;20067;-69
2021/08/09 10:42:30;;;;;;;6.65;2.13;;;21.10;99.90;;;;;;5094116;28;20094;-70
2021/08/09 10:44:57;;;;;;;4.50;1.73;;;21.20;99.90;;;;;;5094187;28;20040;-70
2021/08/09 10:47:45;;;;;;;4.93;1.50;;;21.10;99.90;;;;;;5094343;28;20040;-70
2021/08/09 10:50:26;;;;;;;7.10;1.60;;;21.00;99.90;;;;;;5092992;28;20048;-71
2021/08/09 10:52:53;;;;;;;6.10;1.83;;;21.00;99.90;;;;;;5089006;28;20079;-70
2021/08/09 10:55:31;;;;;;;6.85;1.90;;;21.00;99.90;;;;;;5074092;28;20488;-70
2021/08/09 10:58:04;;;;;;;5.40;1.60;;;21.10;99.90;;;;;;5073871;28;20047;-70
2021/08/09 11:00:39;;;;;;;4.97;1.58;;;21.10;99.90;;;;;;5073591;28;20046;-69
2021/08/09 11:03:06;;;;;;;4.97;1.70;;;21.20;99.90;;;;;;5073481;28;20040;-70
2021/08/09 11:05:32;;;;;;;5.07;1.70;;;21.20;99.90;;;;;;5073456;28;20507;-70
2021/08/09 11:08:16;;;;;;;4.35;1.23;;;21.20;99.90;;;;;;5073718;28;20052;-70
2021/08/09 11:10:51;;;;;;;4.50;1.60;;;21.00;99.90;;;;;;5073083;28;20032;-70
2021/08/09 11:13:18;;;;;;;4.10;1.55;;;20.80;99.90;;;;;;5073398;28;20036;-70
2021/08/09 11:15:54;;;;;;;3.40;1.30;;;20.60;99.90;;;;;;5073379;28;20036;-70
2021/08/09 11:18:20;;;;;;;4.78;1.60;;;20.40;99.90;;;;;;5073603;28;20111;-70
2021/08/09 11:20:46;;;;;;;3.88;1.33;;;20.30;99.90;;;;;;5072978;28;20477;-69
2021/08/09 11:23:14;;;;;;;4.75;1.75;;;20.20;99.90;;;;;;5073387;28;20043;-70
2021/08/09 11:25:44;;;;;;;3.45;1.33;;;20.00;99.90;;;;;;5073138;28;20029;-70
2021/08/09 11:28:16;;;;;;;4.35;1.70;;;19.90;99.90;;;;;;5073569;28;20048;-70
2021/08/09 11:30:59;;;;;;;3.55;1.55;;;19.70;99.90;;;;;;5072888;28;20040;-70
2021/08/09 11:33:30;;;;;;;2.15;1.13;;;19.60;99.90;;;;;;5073179;28;20114;-70
2021/08/09 11:36:04;;;;;;;5.53;1.42;;;19.50;99.90;;;;;;5073449;28;20033;-70
2021/08/09 11:39:01;;;;;;;4.35;1.40;;;19.50;99.90;;;;;;5073012;28;20032;-69
2021/08/09 11:41:29;;;;;;;5.95;1.27;;;19.60;99.90;;;;;;5073088;28;20032;-70
2021/08/09 11:44:07;;;;;;;2.92;1.10;;;19.60;99.90;;;;;;5072364;28;20171;-69
2021/08/09 11:46:43;;;;;;;5.60;1.20;;;19.70;99.90;;;;;;5073115;28;20052;-70
2021/08/09 11:49:09;;;;;;;3.70;1.13;;;19.60;99.90;;;;;;5071739;28;20041;-70
2021/08/09 11:51:35;;;;;;;4.60;1.23;;;19.70;99.90;;;;;;5072891;28;20407;-70
2021/08/09 11:54:00;;;;;;;3.63;1.27;;;19.70;99.90;;;;;;5073201;28;20098;-70
2021/08/09 11:56:30;;;;;;;6.45;1.40;;;19.70;99.90;;;;;;5072987;28;20033;-70
2021/08/09 11:59:00;;;;;;;4.45;1.10;;;19.60;99.90;;;;;;5072587;28;20484;-70
2021/08/09 12:01:40;;;;;;;3.00;1.20;;;19.60;99.90;;;;;;5073081;28;20079;-70
2021/08/09 12:04:17;;;;;;;5.00;1.40;;;19.70;99.90;;;;;;5072731;28;20484;-70
2021/08/09 12:06:50;;;;;;;4.43;1.20;;;19.70;99.90;;;;;;5072899;28;20063;-70
2021/08/09 12:09:18;;;;;;;2.92;1.38;;;19.70;99.90;;;;;;5072493;28;20045;-70
2021/08/09 12:11:58;;;;;;;4.10;1.38;;;19.80;99.90;;;;;;5072624;28;20044;-70
2021/08/09 12:14:24;;;;;;;6.53;1.42;;;19.90;99.90;;;;;;5072697;28;20084;-70
2021/08/09 12:16:51;;;;;;;4.07;1.50;;;20.10;99.90;;;;;;5073076;28;20516;-69
2021/08/09 12:19:36;;;;;;;3.45;1.50;;;20.20;99.90;;;;;;5072751;28;20055;-69
2021/08/09 12:22:16;;;;;;;4.22;1.50;;;20.30;99.90;;;;;;5072830;28;20037;-69
2021/08/09 12:24:43;;;;;;;4.85;1.30;;;20.40;99.90;;;;;;5072689;28;20439;-70
2021/08/09 12:27:21;;;;;;;5.25;1.58;;;20.40;99.90;;;;;;5072894;28;20127;-70
2021/08/09 12:30:10;;;;;;;5.50;1.25;;;20.50;99.90;;;;;;5072653;28;20044;-70
2021/08/09 12:32:55;;;;;;;4.93;1.67;;;20.60;99.90;;;;;;5072503;28;20036;-70
2021/08/09 12:35:34;;;;;;;6.07;1.50;;;20.60;99.90;;;;;;5072833;28;20036;-70
2021/08/09 12:37:59;;;;;;;3.08;1.30;;;20.60;99.90;;;;;;5075082;28;20048;-70
2021/08/09 12:40:25;;;;;;;4.70;1.10;;;20.60;99.90;;;;;;5076327;28;20477;-70
2021/08/09 12:43:11;;;;;;;8.02;1.98;;;20.60;99.90;;;;;;5076781;28;20046;-70
2021/08/09 12:45:38;;;;;;;5.45;1.67;;;20.60;99.90;;;;;;5076581;28;20033;-70
2021/08/09 12:48:06;;;;;;;8.15;1.80;;;20.50;99.90;;;;;;5076376;28;20051;-70
2021/08/09 12:50:33;;;;;;;4.43;1.45;;;20.60;99.90;;;;;;5075535;28;20047;-71
2021/08/09 12:52:59;;;;;;;5.60;1.65;;;20.50;99.90;;;;;;5076414;28;20036;-70